Time;durP1;ratioP1;P1;durP2;ratioP2;P2;SDS_P1;SDS_P2;PMS_P1;PMS_P2;Temp;Humidity;BMP_temperature;BMP_pressure;BME280_temperature;BME280_humidity;BME280_pressure;Samples;Min_cycle;Max_cycle;Signal;HPM_P1;HPM_P2
2022/03/01 00:00:20;;;;;;;14.13;9.30;;;;;;;-1.27;100.00;101769.22;5053037;28;20104;-63
2022/03/01 00:02:46;;;;;;;17.02;9.35;;;;;;;-1.26;100.00;101763.25;5052440;28;20108;-63
2022/03/01 00:05:12;;;;;;;15.15;9.40;;;;;;;-1.17;100.00;101763.41;5048654;28;20482;-63
2022/03/01 00:07:37;;;;;;;16.90;10.45;;;;;;;-1.08;100.00;101758.41;5039339;28;20858;-63
2022/03/01 00:10:03;;;;;;;16.98;9.85;;;;;;;-1.02;100.00;101761.97;5037729;28;20049;-63
2022/03/01 00:12:29;;;;;;;14.85;10.98;;;;;;;-0.94;100.00;101765.53;5051541;28;20051;-63
2022/03/01 00:14:54;;;;;;;17.48;10.68;;;;;;;-0.91;100.00;101763.06;5052241;28;20024;-63
2022/03/01 00:17:20;;;;;;;20.38;10.60;;;;;;;-0.88;100.00;101760.53;5051543;28;20024;-63
2022/03/01 00:19:45;;;;;;;18.27;10.93;;;;;;;-0.86;100.00;101766.56;5052251;28;20025;-64
2022/03/01 00:22:11;;;;;;;17.98;10.85;;;;;;;-0.87;100.00;101768.28;5052564;28;20024;-63
2022/03/01 00:24:36;;;;;;;14.55;10.10;;;;;;;-0.89;100.00;101766.50;5049675;28;20025;-63
2022/03/01 00:27:01;;;;;;;17.60;10.10;;;;;;;-0.97;100.00;101750.00;5052849;28;20024;-63
2022/03/01 00:29:27;;;;;;;16.23;10.90;;;;;;;-0.89;100.00;101761.34;5052493;28;20025;-64
2022/03/01 00:31:52;;;;;;;16.25;10.55;;;;;;;-0.92;100.00;101753.56;5053148;28;20036;-63
2022/03/01 00:34:18;;;;;;;16.85;10.80;;;;;;;-0.96;100.00;101768.13;5051675;28;20033;-63
2022/03/01 00:36:43;;;;;;;16.80;10.90;;;;;;;-1.02;100.00;101777.44;5052489;28;20025;-63
2022/03/01 00:39:08;;;;;;;16.98;10.40;;;;;;;-1.17;100.00;101768.56;5052542;28;20108;-63
2022/03/01 00:41:34;;;;;;;17.25;11.05;;;;;;;-1.17;100.00;101778.00;5052642;28;20475;-63
2022/03/01 00:44:00;;;;;;;16.42;10.52;;;;;;;-1.21;100.00;101777.06;5052556;28;20048;-63
2022/03/01 00:46:26;;;;;;;17.98;10.85;;;;;;;-1.27;100.00;101771.81;5052620;28;20043;-63
2022/03/01 00:48:53;;;;;;;16.15;10.82;;;;;;;-1.25;100.00;101777.00;5052370;28;20021;-63
2022/03/01 00:51:18;;;;;;;24.45;11.60;;;;;;;-1.30;100.00;101771.75;5052503;28;20032;-63
2022/03/01 00:53:44;;;;;;;18.42;11.10;;;;;;;-1.33;100.00;101778.56;5052310;28;20033;-63
2022/03/01 00:56:09;;;;;;;15.00;9.57;;;;;;;-1.36;100.00;101771.63;5049029;28;20060;-63
2022/03/01 00:58:35;;;;;;;16.85;10.95;;;;;;;-1.43;100.00;101767.19;5052876;28;20083;-63
2022/03/01 01:01:00;;;;;;;17.83;10.18;;;;;;;-1.35;100.00;101786.25;5049355;28;20025;-63
2022/03/01 01:03:25;;;;;;;19.38;11.75;;;;;;;-1.36;100.00;101779.38;5052370;28;20056;-63
2022/03/01 01:05:51;;;;;;;16.98;10.82;;;;;;;-1.26;100.00;101778.72;5052225;28;20103;-63
2022/03/01 01:08:16;;;;;;;19.25;12.05;;;;;;;-1.20;100.00;101765.94;5052562;28;20025;-63
2022/03/01 01:10:41;;;;;;;13.25;10.25;;;;;;;-1.20;100.00;101773.66;5051953;28;20093;-63
2022/03/01 01:13:07;;;;;;;16.75;11.05;;;;;;;-1.27;100.00;101766.66;5048249;28;20067;-63
2022/03/01 01:15:32;;;;;;;17.55;10.88;;;;;;;-1.37;100.00;101759.56;5049925;28;20033;-63
2022/03/01 01:17:58;;;;;;;17.50;11.70;;;;;;;-1.41;100.00;101752.63;5052503;28;20498;-63
2022/03/01 01:20:24;;;;;;;15.95;10.68;;;;;;;-1.47;100.00;101741.31;5050321;28;20021;-63
2022/03/01 01:22:49;;;;;;;25.27;11.57;;;;;;;-1.35;100.00;101751.88;5054321;28;20497;-63
2022/03/01 01:25:20;;;;;;;17.38;11.05;;;;;;;-1.29;100.00;101752.88;5055874;28;20025;-64
2022/03/01 01:27:49;;;;;;;14.23;11.13;;;;;;;-1.21;100.00;101759.03;5053849;28;20490;-63
2022/03/01 01:30:18;;;;;;;21.50;11.13;;;;;;;-1.17;100.00;101752.22;5055772;28;20028;-63
2022/03/01 01:32:44;;;;;;;18.30;11.38;;;;;;;-1.17;100.00;101753.09;5055635;28;20055;-63
2022/03/01 01:35:13;;;;;;;17.45;11.98;;;;;;;-1.17;100.00;101750.53;5055882;28;20082;-64
2022/03/01 01:37:39;;;;;;;21.58;11.90;;;;;;;-1.19;100.00;101749.63;5054438;28;20024;-64
2022/03/01 01:40:06;;;;;;;17.73;11.02;;;;;;;-1.18;100.00;101756.50;5046345;28;20035;-63
2022/03/01 01:42:32;;;;;;;21.52;11.80;;;;;;;-1.20;100.00;101747.00;5052780;28;20045;-64
2022/03/01 01:44:57;;;;;;;18.38;11.30;;;;;;;-1.23;100.00;101746.97;5055212;28;20110;-64
2022/03/01 01:47:22;;;;;;;17.83;11.27;;;;;;;-1.25;100.00;101744.34;5051735;28;20036;-63
2022/03/01 01:49:48;;;;;;;20.73;11.10;;;;;;;-1.26;100.00;101747.78;5055175;28;20033;-63
2022/03/01 01:52:14;;;;;;;20.00;11.90;;;;;;;-1.21;100.00;101751.28;5050510;28;20039;-64
2022/03/01 01:54:40;;;;;;;22.50;12.15;;;;;;;-1.28;100.00;101746.84;5054934;28;20025;-63
2022/03/01 01:57:18;;;;;;;18.50;12.07;;;;;;;-1.30;100.00;101747.69;5055181;28;20475;-63
2022/03/01 01:59:44;;;;;;;19.27;11.98;;;;;;;-1.30;100.00;101750.25;5055229;28;20194;-64
2022/03/01 02:02:11;;;;;;;20.63;11.98;;;;;;;-1.30;100.00;101743.41;5053610;28;20131;-63
2022/03/01 02:04:36;;;;;;;17.80;11.20;;;;;;;-1.29;100.00;101737.41;5053486;28;20017;-64
2022/03/01 02:07:02;;;;;;;19.13;10.73;;;;;;;-1.30;100.00;101734.78;5052510;28;20364;-63
2022/03/01 02:09:27;;;;;;;13.82;10.77;;;;;;;-1.32;100.00;101737.31;5053802;28;20021;-64
2022/03/01 02:11:53;;;;;;;18.10;11.38;;;;;;;-1.31;100.00;101739.06;5055235;28;20029;-63
2022/03/01 02:14:18;;;;;;;19.13;11.38;;;;;;;-1.30;100.00;101729.63;5054467;28;20122;-64
2022/03/01 02:16:43;;;;;;;17.98;10.43;;;;;;;-1.29;100.00;101727.09;5055050;28;20025;-63
2022/03/01 02:19:13;;;;;;;18.00;11.75;;;;;;;-1.26;100.00;101723.69;5052588;28;20390;-63
2022/03/01 02:21:49;;;;;;;22.38;12.00;;;;;;;-1.23;100.00;101722.06;5054760;28;20127;-63
2022/03/01 02:24:16;;;;;;;20.17;11.35;;;;;;;-1.20;100.00;101721.22;5054477;28;20025;-63
2022/03/01 02:26:41;;;;;;;16.05;10.27;;;;;;;-1.14;100.00;101722.22;5054547;28;20021;-63
2022/03/01 02:29:06;;;;;;;15.15;10.93;;;;;;;-1.09;100.00;101725.75;5053339;28;20024;-63
2022/03/01 02:31:32;;;;;;;16.10;11.05;;;;;;;-1.02;100.00;101738.75;5054673;28;20052;-63
2022/03/01 02:33:57;;;;;;;17.08;11.02;;;;;;;-1.02;100.00;101736.19;5033388;28;20029;-63
2022/03/01 02:36:23;;;;;;;18.42;11.70;;;;;;;-1.01;100.00;101732.78;5054084;28;20107;-63
2022/03/01 02:38:48;;;;;;;18.88;11.73;;;;;;;-0.99;100.00;101731.06;5054515;28;20033;-64
2022/03/01 02:41:14;;;;;;;15.90;10.65;;;;;;;-1.05;100.00;101730.09;5054492;28;20032;-65
2022/03/01 02:43:39;;;;;;;20.88;10.77;;;;;;;-1.07;100.00;101729.22;5054417;28;20025;-64
2022/03/01 02:46:04;;;;;;;17.48;11.75;;;;;;;-1.08;100.00;101730.06;5053494;28;20028;-62
2022/03/01 02:48:30;;;;;;;16.15;11.10;;;;;;;-1.08;100.00;101732.63;5054829;28;20430;-62
2022/03/01 02:50:55;;;;;;;18.17;10.20;;;;;;;-1.10;100.00;101729.16;5054019;28;20048;-62
2022/03/01 02:53:20;;;;;;;17.83;11.82;;;;;;;-1.13;100.00;101723.97;5052986;28;20025;-62
2022/03/01 02:55:46;;;;;;;18.65;10.60;;;;;;;-1.13;100.00;101721.38;5054244;28;20020;-64
2022/03/01 02:58:11;;;;;;;16.45;10.82;;;;;;;-1.19;100.00;101713.53;5053889;28;20025;-64
2022/03/01 03:00:38;;;;;;;17.75;11.00;;;;;;;-1.23;100.00;101721.19;5053650;28;20463;-64
2022/03/01 03:03:03;;;;;;;15.95;11.00;;;;;;;-1.33;100.00;101721.84;5054053;28;20067;-64
2022/03/01 03:05:29;;;;;;;17.15;10.13;;;;;;;-1.35;100.00;101720.97;5051490;28;20048;-64
2022/03/01 03:07:54;;;;;;;17.67;10.65;;;;;;;-1.44;100.00;101721.63;5053962;28;20039;-64
2022/03/01 03:10:19;;;;;;;17.92;10.45;;;;;;;-1.46;100.00;101725.91;5053333;28;20479;-64
2022/03/01 03:12:45;;;;;;;18.88;11.57;;;;;;;-1.48;100.00;101729.25;5052730;28;20028;-64
2022/03/01 03:15:10;;;;;;;15.93;11.13;;;;;;;-1.45;100.00;101724.19;5051116;28;20029;-64
2022/03/01 03:17:36;;;;;;;17.48;10.85;;;;;;;-1.49;100.00;101718.09;5053719;28;20052;-63
2022/03/01 03:20:03;;;;;;;16.17;10.75;;;;;;;-1.48;100.00;101712.09;5052116;28;20111;-64
2022/03/01 03:22:29;;;;;;;19.75;11.57;;;;;;;-1.45;100.00;101717.31;5053254;28;20471;-64
2022/03/01 03:24:54;;;;;;;19.10;11.40;;;;;;;-1.44;100.00;101711.31;5053573;28;20031;-64
2022/03/01 03:27:19;;;;;;;16.33;10.93;;;;;;;-1.43;100.00;101715.66;5053661;28;20025;-63
2022/03/01 03:29:45;;;;;;;18.83;11.20;;;;;;;-1.44;100.00;101708.75;5051733;28;20100;-64
2022/03/01 03:32:10;;;;;;;16.80;10.95;;;;;;;-1.42;100.00;101701.91;5053559;28;20545;-64
2022/03/01 03:34:35;;;;;;;14.88;10.00;;;;;;;-1.41;100.00;101687.31;5052881;28;20025;-64
2022/03/01 03:37:01;;;;;;;16.67;10.18;;;;;;;-1.38;100.00;101693.41;5052906;28;20032;-64
2022/03/01 03:39:26;;;;;;;16.98;11.05;;;;;;;-1.42;100.00;101678.69;5053631;28;20021;-64
2022/03/01 03:41:51;;;;;;;13.75;10.13;;;;;;;-1.32;100.00;101697.81;5053111;28;20057;-64
2022/03/01 03:44:17;;;;;;;16.90;10.73;;;;;;;-1.30;100.00;101703.84;5053208;28;20027;-64
2022/03/01 03:46:42;;;;;;;16.00;10.38;;;;;;;-1.27;100.00;101715.09;5053000;28;20483;-64
2022/03/01 03:49:08;;;;;;;18.50;11.55;;;;;;;-1.23;100.00;101706.59;5053314;28;20052;-64
2022/03/01 03:51:33;;;;;;;16.65;10.68;;;;;;;-1.19;100.00;101705.81;5051898;28;20017;-64
2022/03/01 03:53:58;;;;;;;18.42;11.68;;;;;;;-1.18;100.00;101704.06;5052766;28;20021;-63
2022/03/01 03:56:24;;;;;;;15.15;10.43;;;;;;;-1.14;100.00;101701.59;5053097;28;20032;-64
2022/03/01 03:58:50;;;;;;;20.20;11.48;;;;;;;-1.13;100.00;101705.91;5052599;28;20440;-64
2022/03/01 04:01:15;;;;;;;20.67;11.48;;;;;;;-1.11;100.00;101705.91;5053200;28;20035;-64
2022/03/01 04:03:41;;;;;;;21.77;11.02;;;;;;;-1.08;100.00;101706.84;5053138;28;20021;-64
2022/03/01 04:06:06;;;;;;;17.30;11.13;;;;;;;-1.05;100.00;101703.47;5052702;28;20075;-64
2022/03/01 04:08:32;;;;;;;22.80;12.05;;;;;;;-1.01;100.00;101701.81;5053326;28;20040;-64
2022/03/01 04:10:57;;;;;;;20.80;11.50;;;;;;;-0.99;100.00;101700.13;5052672;28;20154;-64
2022/03/01 04:13:24;;;;;;;21.80;12.00;;;;;;;-0.94;100.00;101698.47;5053159;28;20052;-64
2022/03/01 04:15:49;;;;;;;16.77;11.80;;;;;;;-0.93;100.00;101693.38;5052930;28;20029;-64
2022/03/01 04:18:15;;;;;;;17.45;10.80;;;;;;;-1.04;100.00;101682.84;5025047;28;20056;-63
2022/03/01 04:20:40;;;;;;;20.80;11.70;;;;;;;-0.89;100.00;101704.59;5052913;28;20064;-64
2022/03/01 04:23:05;;;;;;;19.77;11.30;;;;;;;-0.87;100.00;101703.78;5052852;28;20025;-64
2022/03/01 04:25:31;;;;;;;18.63;11.18;;;;;;;-0.88;100.00;101696.03;5052438;28;20040;-64
2022/03/01 04:27:56;;;;;;;17.52;11.80;;;;;;;-0.87;100.00;101698.63;5052995;28;20040;-64
2022/03/01 04:30:21;;;;;;;18.38;11.77;;;;;;;-0.84;100.00;101708.13;5051199;28;20021;-64
2022/03/01 04:32:47;;;;;;;22.70;11.13;;;;;;;-0.81;100.00;101705.63;5048921;28;20459;-64
2022/03/01 04:35:13;;;;;;;23.83;12.10;;;;;;;-0.82;100.00;101706.44;5052762;28;20029;-64
2022/03/01 04:37:41;;;;;;;20.92;11.77;;;;;;;-0.80;100.00;101708.22;5052866;28;20051;-64
2022/03/01 04:40:08;;;;;;;17.95;11.60;;;;;;;-0.79;100.00;101703.91;5052607;28;20025;-64
2022/03/01 04:42:33;;;;;;;17.20;12.05;;;;;;;-0.78;100.00;101696.22;5052977;28;20021;-64
2022/03/01 04:44:59;;;;;;;14.82;11.73;;;;;;;-0.76;100.00;101698.81;5049217;28;20021;-64
2022/03/01 04:47:24;;;;;;;17.02;10.98;;;;;;;-0.76;100.00;101703.97;5052456;28;20025;-63
2022/03/01 04:49:50;;;;;;;21.00;10.82;;;;;;;-0.81;100.00;101695.31;5052695;28;20029;-64
2022/03/01 04:52:15;;;;;;;18.58;11.38;;;;;;;-0.85;100.00;101701.25;5051315;28;20032;-64
2022/03/01 04:54:41;;;;;;;15.25;10.70;;;;;;;-0.85;100.00;101704.69;5052166;28;20082;-64
2022/03/01 04:57:06;;;;;;;18.65;11.20;;;;;;;-0.84;100.00;101702.97;5054131;28;20025;-63
2022/03/01 04:59:31;;;;;;;13.75;10.50;;;;;;;-0.90;100.00;101690.84;5056157;28;20379;-63
2022/03/01 05:01:57;;;;;;;18.75;11.52;;;;;;;-0.85;100.00;101693.50;5050860;28;20033;-63
2022/03/01 05:04:22;;;;;;;17.92;11.07;;;;;;;-0.84;100.00;101690.94;5056488;28;20036;-64
2022/03/01 05:06:48;;;;;;;16.98;11.73;;;;;;;-0.79;100.00;101693.59;5055893;28;20028;-63
2022/03/01 05:09:13;;;;;;;17.67;12.15;;;;;;;-0.77;100.00;101686.75;5056285;28;20021;-64
2022/03/01 05:11:39;;;;;;;24.30;11.50;;;;;;;-0.75;100.00;101679.91;5056269;28;20044;-63
2022/03/01 05:14:04;;;;;;;20.60;10.98;;;;;;;-0.74;100.00;101684.22;5055918;28;20027;-63
2022/03/01 05:16:30;;;;;;;17.80;11.73;;;;;;;-0.75;100.00;101682.50;5056343;28;20048;-63
2022/03/01 05:18:55;;;;;;;16.38;10.65;;;;;;;-0.73;100.00;101678.22;5054630;28;20108;-64
2022/03/01 05:21:21;;;;;;;19.63;11.48;;;;;;;-0.76;100.00;101679.03;5055569;28;20048;-64
2022/03/01 05:23:46;;;;;;;16.48;11.63;;;;;;;-0.71;100.00;101692.03;5055944;28;20075;-64
2022/03/01 05:26:11;;;;;;;19.38;11.48;;;;;;;-0.67;100.00;101689.50;5055978;28;20021;-63
2022/03/01 05:28:37;;;;;;;17.95;11.60;;;;;;;-0.65;100.00;101692.13;5055492;28;20438;-64
2022/03/01 05:31:02;;;;;;;16.45;11.13;;;;;;;-0.73;100.00;101675.63;5055808;28;20032;-64
2022/03/01 05:33:28;;;;;;;21.30;11.43;;;;;;;-0.61;100.00;101693.91;5055756;28;20044;-64
2022/03/01 05:35:53;;;;;;;19.05;11.77;;;;;;;-0.61;100.00;101683.59;5055580;28;20043;-64
2022/03/01 05:38:19;;;;;;;16.33;10.60;;;;;;;-0.61;100.00;101686.16;5055809;28;20028;-63
2022/03/01 05:40:44;;;;;;;15.57;10.88;;;;;;;-0.64;100.00;101683.50;5055685;28;20028;-64
2022/03/01 05:43:10;;;;;;;16.33;11.35;;;;;;;-0.62;100.00;101685.28;5055713;28;20029;-63
2022/03/01 05:45:35;;;;;;;15.00;11.18;;;;;;;-0.64;100.00;101684.38;5055651;28;20017;-63
2022/03/01 05:48:01;;;;;;;17.80;10.65;;;;;;;-0.63;100.00;101685.25;5055407;28;20082;-64
2022/03/01 05:50:26;;;;;;;22.25;12.40;;;;;;;-0.64;100.00;101681.81;5055775;28;20017;-63
2022/03/01 05:52:52;;;;;;;16.50;11.90;;;;;;;-0.65;100.00;101677.50;5055074;28;20024;-63
2022/03/01 05:55:17;;;;;;;15.77;11.20;;;;;;;-0.59;100.00;101681.88;5055382;28;20483;-63
2022/03/01 05:57:43;;;;;;;22.25;11.80;;;;;;;-0.58;100.00;101683.63;5055121;28;20043;-64
2022/03/01 06:00:14;;;;;;;16.55;11.75;;;;;;;-0.60;100.00;101680.13;5055408;28;20512;-63
2022/03/01 06:02:41;;;;;;;20.00;12.57;;;;;;;-0.64;100.00;101678.34;5055194;28;20034;-64
2022/03/01 06:05:06;;;;;;;16.52;10.88;;;;;;;-0.66;100.00;101677.47;5052142;28;20017;-63
2022/03/01 06:07:32;;;;;;;21.45;12.88;;;;;;;-0.65;100.00;101686.97;5055020;28;20029;-64
2022/03/01 06:09:57;;;;;;;19.25;11.52;;;;;;;-0.68;100.00;101687.78;5054540;28;20104;-64
2022/03/01 06:12:22;;;;;;;19.88;12.02;;;;;;;-0.72;100.00;101692.88;5054990;28;20021;-63
2022/03/01 06:14:48;;;;;;;22.63;13.85;;;;;;;-0.73;100.00;101688.53;5055106;28;20154;-64
2022/03/01 06:17:13;;;;;;;25.85;12.25;;;;;;;-0.75;100.00;101685.06;5054923;28;20490;-64
2022/03/01 06:19:39;;;;;;;15.70;11.65;;;;;;;-0.81;100.00;101682.41;5054835;28;20017;-63
2022/03/01 06:22:05;;;;;;;17.55;12.90;;;;;;;-0.82;100.00;101689.25;5054881;28;20029;-64
2022/03/01 06:24:31;;;;;;;21.77;12.27;;;;;;;-0.86;100.00;101694.34;5054599;28;20032;-63
2022/03/01 06:26:56;;;;;;;20.38;12.30;;;;;;;-0.89;100.00;101692.59;5054753;28;20032;-63
2022/03/01 06:29:22;;;;;;;21.80;13.65;;;;;;;-0.95;100.00;101687.31;5053299;28;20104;-63
2022/03/01 06:31:47;;;;;;;23.48;12.93;;;;;;;-0.91;100.00;101698.56;5054679;28;20021;-64
2022/03/01 06:34:12;;;;;;;27.00;15.90;;;;;;;-0.91;100.00;101693.41;5054215;28;20083;-64
2022/03/01 06:36:38;;;;;;;23.23;14.15;;;;;;;-0.89;100.00;101696.88;5054525;28;20029;-63
2022/03/01 06:39:03;;;;;;;28.63;15.10;;;;;;;-0.88;100.00;101693.44;5054641;28;20100;-63
2022/03/01 06:41:28;;;;;;;22.00;13.98;;;;;;;-1.06;100.00;101663.94;5053100;28;20036;-63
2022/03/01 06:43:54;;;;;;;23.33;14.90;;;;;;;-0.80;100.00;101697.00;5047691;28;20021;-63
2022/03/01 06:46:20;;;;;;;22.45;13.55;;;;;;;-0.82;100.00;101681.53;5054314;28;20450;-63
2022/03/01 06:48:46;;;;;;;26.08;15.80;;;;;;;-0.69;100.00;101693.78;5054304;28;20476;-63
2022/03/01 06:51:12;;;;;;;25.35;14.80;;;;;;;-0.59;100.00;101692.22;5054238;28;20230;-63
2022/03/01 06:53:37;;;;;;;26.10;14.85;;;;;;;-0.48;100.00;101703.59;5053898;28;20112;-63
2022/03/01 06:56:03;;;;;;;22.63;13.75;;;;;;;-0.39;100.00;101698.56;5053997;28;20031;-63
2022/03/01 06:58:29;;;;;;;17.90;13.15;;;;;;;-0.29;100.00;101700.41;5054329;28;20029;-63
2022/03/01 07:00:56;;;;;;;26.60;13.77;;;;;;;-0.35;100.00;101677.09;5054049;28;20493;-63
2022/03/01 07:03:21;;;;;;;19.80;13.23;;;;;;;-0.16;100.00;101694.59;5053817;28;20082;-63
2022/03/01 07:05:47;;;;;;;27.27;14.32;;;;;;;-0.03;100.00;101696.47;5053087;28;20020;-64
2022/03/01 07:08:13;;;;;;;19.70;13.30;;;;;;;0.09;100.00;101694.94;5053671;28;20016;-63
2022/03/01 07:10:38;;;;;;;18.05;12.77;;;;;;;0.21;100.00;101697.66;5054014;28;20029;-63
2022/03/01 07:13:04;;;;;;;26.10;12.65;;;;;;;0.33;100.00;101692.66;5028062;28;20927;-64
2022/03/01 07:15:30;;;;;;;16.92;12.27;;;;;;;0.50;100.00;101696.31;5053072;28;20103;-64
2022/03/01 07:17:55;;;;;;;20.35;13.45;;;;;;;0.76;100.00;101702.63;5053879;28;20099;-63
2022/03/01 07:20:20;;;;;;;18.33;11.68;;;;;;;0.95;100.00;101694.19;5053180;28;20027;-64
2022/03/01 07:22:46;;;;;;;20.50;11.63;;;;;;;1.16;100.00;101703.00;5053861;28;20105;-63
2022/03/01 07:25:12;;;;;;;20.75;10.70;;;;;;;1.41;100.00;101710.16;5050323;28;20386;-63
2022/03/01 07:27:49;;;;;;;15.77;10.40;;;;;;;1.57;100.00;101696.47;5053487;28;20029;-63
2022/03/01 07:30:19;;;;;;;13.35;9.65;;;;;;;1.79;100.00;101703.50;5053616;28;20467;-64
2022/03/01 07:32:45;;;;;;;22.58;11.15;;;;;;;1.94;100.00;101708.81;5048996;28;20052;-63
2022/03/01 07:35:10;;;;;;;14.32;10.18;;;;;;;2.01;100.00;101689.84;5049368;28;20510;-63
2022/03/01 07:37:37;;;;;;;16.08;10.13;;;;;;;2.21;100.00;101708.09;5052861;28;20039;-64
2022/03/01 07:40:08;;;;;;;18.17;10.68;;;;;;;2.32;100.00;101708.13;5051044;28;20025;-64
2022/03/01 07:42:33;;;;;;;16.17;9.95;;;;;;;2.45;100.00;101712.50;5050959;28;20025;-64
2022/03/01 07:44:59;;;;;;;16.15;10.50;;;;;;;2.51;100.00;101705.63;5051609;28;20031;-64
2022/03/01 07:47:24;;;;;;;14.50;9.80;;;;;;;2.66;100.00;101706.53;5051179;28;20025;-64
2022/03/01 07:49:50;;;;;;;16.60;10.48;;;;;;;2.67;100.00;101703.94;5050938;28;20127;-64
2022/03/01 07:52:15;;;;;;;14.57;10.07;;;;;;;2.88;100.00;101723.88;5050886;28;20051;-64
2022/03/01 07:54:40;;;;;;;16.60;9.98;;;;;;;3.02;100.00;101723.06;5050796;28;20090;-64
2022/03/01 07:57:06;;;;;;;19.48;11.02;;;;;;;3.17;100.00;101716.16;5051089;28;20028;-64
2022/03/01 07:59:31;;;;;;;15.23;9.82;;;;;;;3.34;100.00;101715.31;5049080;28;20033;-64
2022/03/01 08:01:56;;;;;;;19.48;10.10;;;;;;;3.47;100.00;101716.19;5051217;28;20036;-64
2022/03/01 08:04:22;;;;;;;15.90;10.90;;;;;;;3.56;100.00;101731.75;5046649;28;20017;-64
2022/03/01 08:06:49;;;;;;;18.95;9.73;;;;;;;3.66;100.00;101759.47;5033254;28;20091;-64
2022/03/01 08:09:14;;;;;;;15.82;9.23;;;;;;;3.69;100.00;101743.88;5029155;28;20040;-64
2022/03/01 08:11:39;;;;;;;17.52;9.95;;;;;;;3.82;100.00;101750.78;5033300;28;20029;-64
2022/03/01 08:14:05;;;;;;;12.30;8.50;;;;;;;3.83;100.00;101752.53;5051684;28;20113;-64
2022/03/01 08:16:30;;;;;;;12.68;8.77;;;;;;;3.88;100.00;101745.63;5050920;28;20029;-64
2022/03/01 08:18:55;;;;;;;12.70;8.80;;;;;;;3.92;100.00;101721.31;5048384;28;20033;-64
2022/03/01 08:21:21;;;;;;;15.88;10.38;;;;;;;3.93;100.00;101707.47;5047731;28;20060;-64
2022/03/01 08:23:46;;;;;;;15.73;9.60;;;;;;;3.93;100.00;101717.88;5048144;28;20483;-64
2022/03/01 08:26:12;;;;;;;13.35;8.57;;;;;;;3.93;100.00;101722.19;5047830;28;20021;-64
2022/03/01 08:28:37;;;;;;;11.55;8.90;;;;;;;3.84;100.00;101714.41;5046056;28;20035;-70
2022/03/01 08:31:03;;;;;;;16.67;9.48;;;;;;;3.81;100.00;101712.69;5044363;28;20036;-64
2022/03/01 08:33:29;;;;;;;17.73;9.23;;;;;;;3.84;100.00;101733.50;5047363;28;20029;-64
2022/03/01 08:35:55;;;;;;;19.02;9.07;;;;;;;3.98;100.00;101746.47;5047104;28;20033;-64
2022/03/01 08:38:21;;;;;;;14.32;10.00;;;;;;;4.12;100.00;101750.75;5048477;28;20403;-64
2022/03/01 08:40:46;;;;;;;14.43;9.27;;;;;;;4.32;100.00;101736.84;5047537;28;20028;-64
2022/03/01 08:43:13;;;;;;;14.30;9.48;;;;;;;4.50;100.00;101752.38;5048365;28;20545;-64
2022/03/01 08:45:39;;;;;;;15.52;9.70;;;;;;;4.64;100.00;101755.81;5048657;28;20036;-64
2022/03/01 08:48:05;;;;;;;14.25;9.18;;;;;;;4.77;100.00;101754.88;5044390;28;20040;-64
2022/03/01 08:50:31;;;;;;;12.02;9.10;;;;;;;4.87;100.00;101748.75;5045218;28;20082;-64
2022/03/01 08:52:56;;;;;;;13.45;8.90;;;;;;;4.96;100.00;101748.72;5043476;28;20021;-64
2022/03/01 08:55:22;;;;;;;15.77;9.90;;;;;;;4.98;100.00;101756.50;5053888;28;20024;-64
2022/03/01 08:57:47;;;;;;;12.85;8.82;;;;;;;5.01;100.00;101757.34;5086807;28;20024;-64
2022/03/01 09:00:14;;;;;;;17.55;9.30;;;;;;;5.06;100.00;101759.94;5054292;28;20521;-64
2022/03/01 09:02:39;;;;;;;14.52;9.23;;;;;;;5.10;100.00;101757.28;5054677;28;20420;-64
2022/03/01 09:05:05;;;;;;;13.07;9.07;;;;;;;5.18;100.00;101759.00;5054557;28;20029;-64
2022/03/01 09:07:32;;;;;;;13.57;9.82;;;;;;;5.21;100.00;101745.94;5052940;28;20021;-64
2022/03/01 09:09:57;;;;;;;19.25;9.30;;;;;;;5.29;100.00;101749.38;5054186;28;20025;-64
2022/03/01 09:12:23;;;;;;;15.40;10.38;;;;;;;5.37;100.00;101747.59;5052328;28;20501;-64
2022/03/01 09:14:48;;;;;;;19.88;9.45;;;;;;;5.42;100.00;101751.00;5053601;28;20047;-64
2022/03/01 09:17:13;;;;;;;12.27;8.77;;;;;;;5.52;100.00;101744.84;5054284;28;20024;-64
2022/03/01 09:19:39;;;;;;;14.10;9.75;;;;;;;5.58;100.00;101742.19;5054283;28;20383;-64
2022/03/01 09:22:04;;;;;;;18.70;9.88;;;;;;;5.62;100.00;101751.72;5052833;28;20056;-64
2022/03/01 09:24:29;;;;;;;14.52;8.98;;;;;;;5.60;100.00;101738.72;5004940;28;1418793;-64
2022/03/01 09:26:57;;;;;;;15.23;10.05;;;;;;;5.56;100.00;101718.75;5055190;28;20391;-65
2022/03/01 09:29:23;;;;;;;12.02;9.60;;;;;;;5.75;100.00;101740.31;5055199;28;20059;-64
2022/03/01 09:31:48;;;;;;;11.77;9.35;;;;;;;5.87;100.00;101735.03;5055163;28;20473;-64
2022/03/01 09:34:13;;;;;;;15.13;9.48;;;;;;;5.99;100.00;101737.50;5055375;28;20471;-65
2022/03/01 09:36:39;;;;;;;12.70;8.82;;;;;;;6.06;100.00;101733.97;5053881;28;20078;-64
2022/03/01 09:39:04;;;;;;;17.40;9.43;;;;;;;6.30;100.00;101742.41;5054028;28;20025;-65
2022/03/01 09:41:32;;;;;;;11.60;8.43;;;;;;;6.42;100.00;101732.69;5053194;28;20122;-65
2022/03/01 09:43:58;;;;;;;12.15;8.35;;;;;;;6.71;100.00;101740.16;5087016;28;20029;-64
2022/03/01 09:46:24;;;;;;;12.07;8.95;;;;;;;6.90;100.00;101748.63;5054524;28;20017;-64
2022/03/01 09:48:50;;;;;;;10.73;8.75;;;;;;;7.08;100.00;101751.00;5055132;28;20426;-64
2022/03/01 09:51:16;;;;;;;17.52;9.70;;;;;;;7.24;100.00;101756.84;5086723;28;20021;-64
2022/03/01 09:53:42;;;;;;;16.17;9.30;;;;;;;7.35;100.00;101755.81;5054979;28;20433;-64
2022/03/01 09:56:08;;;;;;;20.13;8.98;;;;;;;7.42;100.00;101757.44;5054191;28;20103;-64
2022/03/01 09:58:33;;;;;;;13.57;9.35;;;;;;;7.52;100.00;101763.41;5054581;28;20036;-64
2022/03/01 10:00:59;;;;;;;14.95;9.52;;;;;;;7.54;100.00;101746.78;5051274;28;20028;-64
2022/03/01 10:03:24;;;;;;;11.32;8.07;;;;;;;7.63;96.22;101744.03;5054383;28;20510;-64
2022/03/01 10:05:50;;;;;;;14.07;8.82;;;;;;;7.76;99.28;101749.94;5054391;28;20020;-64
2022/03/01 10:08:20;;;;;;;11.88;8.73;;;;;;;7.93;98.08;101755.75;5054067;28;20021;-65
2022/03/01 10:10:51;;;;;;;12.13;8.75;;;;;;;8.02;97.54;101754.69;5051589;28;20033;-64
2022/03/01 10:13:23;;;;;;;12.48;9.15;;;;;;;8.16;97.95;101774.50;5054849;28;20071;-64
2022/03/01 10:16:01;;;;;;;13.52;9.20;;;;;;;8.25;92.31;101767.38;5053314;28;20404;-64
2022/03/01 10:18:39;;;;;;;14.95;8.75;;;;;;;8.27;90.93;101766.47;5053087;28;20040;-64
2022/03/01 10:21:06;;;;;;;9.65;7.38;;;;;;;8.17;88.83;101768.38;5052427;28;20028;-64
2022/03/01 10:23:33;;;;;;;13.65;8.75;;;;;;;8.05;87.23;101771.22;5052946;28;20025;-65
2022/03/01 10:26:19;;;;;;;17.33;8.90;;;;;;;7.93;92.38;101766.22;5053406;28;20029;-64
2022/03/01 10:28:46;;;;;;;11.32;8.35;;;;;;;7.81;91.70;101760.31;5050556;28;20559;-64
2022/03/01 10:31:19;;;;;;;11.50;8.95;;;;;;;7.71;92.72;101770.06;5053129;28;20021;-64
2022/03/01 10:34:03;;;;;;;14.40;8.90;;;;;;;7.65;94.93;101768.41;5053542;28;20024;-64
2022/03/01 10:36:33;;;;;;;16.77;9.47;;;;;;;7.54;96.11;101769.47;5042521;28;20033;-64
2022/03/01 10:39:13;;;;;;;14.82;9.45;;;;;;;7.54;97.01;101772.94;5053299;28;20040;-64
2022/03/01 10:41:40;;;;;;;15.50;10.00;;;;;;;7.56;95.48;101772.94;5052208;28;20371;-64
2022/03/01 10:44:07;;;;;;;12.18;8.98;;;;;;;7.56;95.22;101765.09;5045191;28;20017;-64
2022/03/01 10:46:41;;;;;;;17.27;10.50;;;;;;;7.54;96.31;101769.47;5051281;28;20021;-64
2022/03/01 10:49:12;;;;;;;12.90;9.95;;;;;;;7.51;98.95;101766.88;5053286;28;20040;-64
2022/03/01 10:51:49;;;;;;;20.70;9.85;;;;;;;7.65;97.39;101764.94;5053186;28;20028;-64
2022/03/01 10:54:29;;;;;;;15.07;10.57;;;;;;;7.83;98.01;101767.25;5084315;28;20016;-64
2022/03/01 10:56:56;;;;;;;13.30;10.15;;;;;;;8.05;98.44;101763.34;5052835;28;20025;-63
2022/03/01 10:59:26;;;;;;;14.38;10.18;;;;;;;8.26;99.14;101753.38;5053067;28;20025;-64
2022/03/01 11:01:52;;;;;;;15.95;9.18;;;;;;;8.47;94.52;101753.88;5053644;28;20082;-64